Latest Weather Observations for Longreach

IDQ60801

Issued at 8:32 pm EST Monday 17 December 2018 (issued every 10 minutes, with the page automatically refreshed every 10 minutes)

About weather observations | Map of weather stations | Latest weather observations for QLD | Other Formats
Station Details ID: 036031 Name: LONGREACH AERO Lat: -23.44 Lon: 144.28 Height: 192.2 m
Data from the previous 72 hours. | See also: Recent months at Longreach
Date/Time
EST
Temp
°C
App
Temp
°C
Dew
Point
°C
Rel
Hum
%
Delta-T
°C
Wind Press
QNH
hPa
Press
MSL
hPa
Rain since
9am
mm
Dir  Spd
km/h
Gust
km/h
Spd
kts
Gust
kts
17/08:30pm 32.4 30.5 10.4 26 12.8 SSW 11 13 6 7 1005.6 1004.2 0.0
17/08:00pm 33.9 32.4 10.5 24 13.7 SSW 9 11 5 6 1005.4 1004.0 0.0
17/07:30pm 35.3 33.6 9.7 21 14.9 SSW 9 11 5 6 1005.1 1003.7 0.0
17/07:00pm 36.4 34.3 9.8 20 15.6 SSW 11 15 6 8 1004.7 1003.3 0.0
17/06:30pm 37.5 34.5 9.2 18 16.5 SE 15 24 8 13 1004.4 1003.0 0.0
17/06:00pm 38.2 36.8 8.9 17 17.1 SE 6 15 3 8 1004.0 1002.7 0.0
17/05:30pm 38.5 36.1 10.0 18 16.9 SSW 13 19 7 10 1003.8 1002.5 0.0
17/05:00pm 38.2 34.7 8.9 17 17.1 SE 17 30 9 16 1003.7 1002.3 0.0
17/04:30pm 38.7 35.0 9.3 17 17.2 SSE 19 26 10 14 1003.7 1002.3 0.0
17/04:00pm 38.8 35.8 9.4 17 17.3 ESE 15 22 8 12 1003.9 1002.6 0.0
17/03:30pm 38.7 36.1 9.3 17 17.2 SSW 13 26 7 14 1004.2 1002.8 0.0
17/03:00pm 38.3 36.0 9.0 17 17.1 S 11 22 6 12 1004.7 1003.3 0.0
17/02:30pm 37.9 36.1 9.5 18 16.6 E 9 15 5 8 1005.0 1003.6 0.0
17/02:00pm 38.2 36.6 8.9 17 17.1 E 7 11 4 6 1005.5 1004.1 0.0
17/01:30pm 37.2 34.9 10.5 20 15.8 SE 13 20 7 11 1005.9 1004.5 0.0
17/01:00pm 36.7 35.3 12.2 23 14.9 SE 11 22 6 12 1006.4 1005.0 0.0
17/12:30pm 35.6 35.6 15.3 29 12.8 ESE 9 15 5 8 1006.8 1005.4 0.0
17/12:00pm 34.8 34.6 15.7 32 12.1 SE 11 19 6 10 1007.3 1005.9 0.0
17/11:30am 34.1 34.5 17.3 36 10.8 NNE 11 24 6 13 1007.7 1006.3 0.0
17/11:00am 32.9 34.0 17.9 41 9.7 E 9 19 5 10 1007.9 1006.5 0.0
17/10:30am 32.0 33.6 18.2 43 9.0 NE 7 17 4 9 1008.1 1006.7 0.0
17/10:00am 30.8 32.1 18.5 47 8.0 NNE 9 17 5 9 1008.2 1006.8 0.0
17/09:30am 30.3 32.1 19.6 52 7.1 NNE 9 17 5 9 1008.3 1006.9 0.0
17/09:00am 28.7 29.8 19.6 58 6.0 NNE 13 19 7 10 1008.3 1006.9 -
17/08:30am 27.8 28.5 20.4 64 4.9 NE 17 24 9 13 1008.3 1006.9 -
17/08:00am 27.5 27.3 20.6 66 4.6 NE 22 28 12 15 1008.3 1006.9 -
17/07:30am 26.2 26.3 20.3 70 3.9 NE 20 28 11 15 1008.0 1006.6 -
17/07:00am 25.2 25.1 20.0 73 3.4 NE 20 26 11 14 1007.7 1006.3 -
17/06:30am 24.1 24.8 19.6 76 2.9 NE 15 19 8 10 1007.1 1005.7 -
17/06:00am 22.7 23.7 19.5 82 2.1 E 13 15 7 8 1006.9 1005.5 -
17/05:30am 22.5 23.6 18.9 80 2.3 NE 11 15 6 8 1006.4 1005.0 -
17/05:00am 22.2 23.2 18.6 80 2.3 N 11 13 6 7 1006.0 1004.6 -
17/04:30am 23.3 24.1 19.0 77 2.8 NE 13 15 7 8 1005.8 1004.4 -
17/04:00am 23.7 25.1 19.6 78 2.7 E 11 15 6 8 1005.6 1004.2 -
17/03:30am 23.5 25.0 19.0 76 2.9 NNE 9 11 5 6 1005.4 1004.0 -
17/03:00am 24.3 24.7 19.1 73 3.4 NE 15 19 8 10 1005.4 1004.0 0.0
17/02:30am 25.0 25.8 19.1 70 3.8 NE 13 19 7 10 1005.5 1004.1 -
17/02:00am 25.5 26.0 19.2 68 4.1 E 15 28 8 15 1005.6 1004.2 -
17/01:30am 25.5 25.3 18.4 65 4.5 NE 17 20 9 11 1005.6 1004.2 -
17/01:00am 26.3 25.8 17.9 60 5.4 NE 17 20 9 11 1005.7 1004.3 -
17/12:30am 27.6 25.8 9.4 32 10.2 ESE 9 17 5 9 1005.8 1004.4 -
17/12:00am 26.3 23.4 8.3 32 9.8 S 13 20 7 11 1005.8 1004.4 -
 
Date/Time
EST
Temp
°C
App
Temp
°C
Dew
Point
°C
Rel
Hum
%
Delta-T
°C
Wind Press
QNH
hPa
Press
MSL
hPa
Rain since
9am
mm
Dir  Spd
km/h
Gust
km/h
Spd
kts
Gust
kts
16/11:30pm 27.4 23.7 7.8 29 10.6 SW 17 20 9 11 1005.5 1004.1 -
16/11:00pm 26.9 22.8 7.9 30 10.3 SW 19 22 10 12 1005.7 1004.3 -
16/10:30pm 27.4 23.7 7.8 29 10.6 SW 17 19 9 10 1005.8 1004.4 -
16/10:00pm 27.2 23.8 7.6 29 10.6 SW 15 17 8 9 1005.8 1004.4 -
16/09:30pm 28.1 24.5 6.8 26 11.4 SW 15 17 8 9 1005.5 1004.1 -
16/09:00pm 29.1 25.3 5.9 23 12.3 SW 15 17 8 9 1005.2 1003.8 -
16/08:30pm 30.1 26.4 4.7 20 13.3 SW 13 15 7 8 1004.9 1003.5 -
16/08:00pm 31.2 27.1 4.1 18 14.2 SW 15 17 8 9 1004.6 1003.2 -
16/07:30pm 32.1 28.3 4.0 17 14.7 SW 13 17 7 9 1004.3 1002.9 -
16/07:00pm 34.0 29.8 3.7 15 16.0 SW 15 19 8 10 1004.0 1002.7 -
16/06:30pm 35.3 29.9 2.7 13 17.0 SSW 20 28 11 15 1003.6 1002.2 -
16/06:00pm 36.3 31.8 2.4 12 17.7 SW 15 24 8 13 1003.2 1001.8 -
16/05:30pm 36.8 33.0 1.5 11 18.2 SW 11 19 6 10 1003.1 1001.7 -
16/05:00pm 36.8 33.0 1.5 11 18.3 SSW 11 17 6 9 1003.1 1001.7 -
16/04:30pm 36.9 33.5 1.6 11 18.2 S 9 17 5 9 1003.1 1001.7 -
16/04:00pm 36.7 32.1 1.5 11 18.2 W 15 19 8 10 1003.3 1001.9 -
16/03:30pm 36.7 33.4 2.7 12 17.9 ESE 9 15 5 8 1003.5 1002.1 0.0
16/03:00pm 36.6 32.7 1.4 11 18.2 S 11 20 6 11 1003.9 1002.6 0.0
16/02:30pm 36.4 32.1 1.2 11 18.0 SSE 13 20 7 11 1004.3 1002.9 0.0
16/02:00pm 35.7 32.3 1.9 12 17.5 ESE 9 15 5 8 1004.8 1003.4 0.0
16/01:30pm 35.8 31.3 2.0 12 17.5 W 15 20 8 11 1005.1 1003.7 0.0
16/01:00pm 35.2 31.2 0.3 11 17.5 WSW 11 17 6 9 1005.7 1004.3 0.0
16/12:30pm 34.9 30.8 0.1 11 17.3 SSW 11 17 6 9 1006.1 1004.7 0.0
16/12:00pm 33.9 29.7 -0.7 11 17.0 NNE 11 17 6 9 1006.7 1005.3 0.0
16/11:30am 33.8 29.8 0.5 12 16.6 SSE 11 15 6 8 1007.3 1005.9 0.0
16/11:00am 33.5 29.5 0.2 12 16.5 E 11 22 6 12 1007.6 1006.2 0.0
16/10:30am 32.7 28.0 0.7 13 15.9 ESE 15 26 8 14 1008.0 1006.6 0.0
16/10:00am 31.5 27.2 5.1 19 14.0 SE 17 26 9 14 1008.2 1006.8 0.0
16/09:30am 31.0 27.3 6.1 21 13.4 ESE 15 20 8 11 1008.3 1006.9 0.0
16/09:00am 30.2 26.3 5.5 21 13.1 ESE 15 19 8 10 1008.1 1006.7 -
16/08:30am 29.0 25.7 6.4 24 12.1 ESE 13 15 7 8 1008.0 1006.6 -
16/08:00am 27.8 25.2 7.6 28 11.0 ESE 11 13 6 7 1008.1 1006.7 -
16/07:30am 25.4 23.7 8.4 34 9.2 SSE 7 9 4 5 1008.2 1006.8 -
16/07:00am 22.8 21.4 9.6 43 7.2 S 7 9 4 5 1008.1 1006.7 -
16/06:30am 20.1 18.7 10.8 55 5.1 SW 9 9 5 5 1007.8 1006.4 -
16/06:00am 18.0 16.9 12.0 68 3.3 SW 9 11 5 6 1007.4 1006.0 -
16/05:30am 17.8 18.1 12.3 70 3.1 S 2 7 1 4 1007.0 1005.6 -
16/05:00am 18.5 18.5 11.3 63 4.0 S 2 6 1 3 1006.4 1005.0 -
16/04:30am 19.1 17.9 11.7 62 4.1 S 9 11 5 6 1005.9 1004.5 -
16/04:00am 19.7 18.3 10.9 57 4.9 SE 9 11 5 6 1005.7 1004.3 -
16/03:30am 19.0 16.9 11.3 61 4.2 E 13 15 7 8 1005.7 1004.3 -
16/03:00am 19.8 19.2 11.8 60 4.5 W 6 7 3 4 1005.6 1004.2 0.0
16/02:30am 20.3 19.4 11.5 57 4.9 NE 7 15 4 8 1005.7 1004.3 -
16/02:00am 21.5 19.8 9.7 47 6.4 WSW 9 11 5 6 1005.7 1004.3 -
16/01:30am 22.0 20.6 9.5 45 6.8 W 7 9 4 5 1005.8 1004.4 -
16/01:00am 21.2 21.1 12.1 56 5.2 W 4 9 2 5 1006.0 1004.6 -
16/12:30am 20.9 20.4 12.1 57 5.0 NW 6 7 3 4 1006.2 1004.8 -
16/12:00am 21.2 20.1 10.7 51 5.8 NW 7 15 4 8 1006.3 1004.9 -
 
Date/Time
EST
Temp
°C
App
Temp
°C
Dew
Point
°C
Rel
Hum
%
Delta-T
°C
Wind Press
QNH
hPa
Press
MSL
hPa
Rain since
9am
mm
Dir  Spd
km/h
Gust
km/h
Spd
kts
Gust
kts
15/11:30pm 21.9 22.2 11.0 50 6.1 CALM 0 0 0 0 1006.3 1004.9 -
15/11:00pm 23.9 22.7 7.9 36 8.6 SSE 4 6 2 3 1006.1 1004.7 -
15/10:30pm 25.5 23.0 6.7 30 9.9 S 9 11 5 6 1005.9 1004.5 -
15/10:00pm 26.3 23.4 6.4 28 10.5 S 11 15 6 8 1005.6 1004.2 -
15/09:30pm 26.5 23.6 8.0 31 10.0 SSW 13 19 7 10 1005.4 1004.0 -
15/09:00pm 27.5 25.1 6.8 27 11.1 SSE 9 11 5 6 1005.2 1003.8 -
15/08:30pm 27.8 26.2 8.1 29 10.8 SE 6 9 3 5 1005.3 1003.9 0.0
15/08:00pm 27.3 25.2 6.7 27 11.0 SSE 7 9 4 5 1005.2 1003.8 0.0
15/07:30pm 30.1 27.1 4.0 19 13.5 SW 9 11 5 6 1004.9 1003.5 0.0
15/07:00pm 31.3 28.2 3.4 17 14.4 WSW 9 13 5 7 1004.7 1003.3 0.0
15/06:30pm 33.0 29.2 2.0 14 15.8 WSW 11 15 6 8 1004.5 1003.1 0.0
15/06:00pm 33.3 30.5 2.2 14 15.9 WSW 6 11 3 6 1004.3 1002.9 0.0
15/05:30pm 33.7 29.6 2.5 14 16.0 WSW 13 20 7 11 1004.0 1002.7 0.0
15/05:00pm 33.8 30.0 1.6 13 16.4 W 11 19 6 10 1003.9 1002.6 0.0
15/04:30pm 33.6 29.9 2.4 14 16.0 W 11 24 6 13 1004.0 1002.7 0.0
15/04:00pm 33.3 29.4 1.2 13 16.2 W 11 20 6 11 1004.2 1002.8 0.0
15/03:30pm 33.8 28.6 2.6 14 16.1 W 19 28 10 15 1004.4 1003.0 0.0
15/03:00pm 33.2 27.7 2.1 14 15.9 WNW 20 30 11 16 1004.7 1003.3 0.0
15/02:30pm 33.0 29.4 0.9 13 16.0 SW 9 17 5 9 1005.1 1003.7 0.0
15/02:00pm 32.2 28.2 0.3 13 15.7 W 11 17 6 9 1005.5 1004.1 0.0
15/01:30pm 32.3 27.1 0.4 13 15.7 WSW 17 26 9 14 1005.9 1004.5 0.0
15/01:00pm 31.6 27.1 -0.1 13 15.5 WSW 13 19 7 10 1006.2 1004.8 0.0
15/12:30pm 30.8 27.0 -0.8 13 15.1 SE 9 13 5 7 1006.7 1005.3 0.0
15/12:00pm 30.5 27.2 0.0 14 14.8 SSE 7 11 4 6 1007.0 1005.6 0.0
15/11:30am 30.4 27.0 1.8 16 14.2 WSW 9 13 5 7 1007.3 1005.9 0.0
15/11:00am 28.9 25.6 -1.2 14 14.1 E 6 11 3 6 1007.6 1006.2 0.0
15/10:30am 28.7 24.8 -1.4 14 14.0 SW 9 13 5 7 1007.8 1006.4 0.0
15/10:00am 28.2 24.5 0.0 16 13.4 SSE 9 15 5 8 1008.1 1006.7 0.0
15/09:30am 27.6 23.2 0.4 17 13.0 S 13 19 7 10 1008.0 1006.6 0.0
15/09:00am 26.5 21.6 -0.5 17 12.6 SSE 15 20 8 11 1008.3 1006.9 0.0
15/08:30am 25.7 21.0 1.1 20 11.7 SSE 15 20 8 11 1008.5 1007.2 0.0
15/08:00am 24.7 20.2 2.2 23 10.9 SSE 15 19 8 10 1008.6 1007.3 0.0
15/07:30am 23.2 18.5 3.2 27 9.7 SSE 17 19 9 10 1008.5 1007.2 0.0
15/07:00am 21.0 17.5 5.4 36 7.8 S 13 15 7 8 1008.3 1006.9 0.0
15/06:30am 19.1 16.6 6.6 44 6.3 SE 9 11 5 6 1008.1 1006.7 0.0
15/06:00am 18.3 15.7 6.2 45 6.0 SSE 9 11 5 6 1007.8 1006.4 0.0
15/05:30am 18.4 15.7 5.6 43 6.3 S 9 11 5 6 1007.5 1006.1 0.0
15/05:00am 18.6 15.6 5.8 43 6.4 S 11 13 6 7 1006.9 1005.5 0.0
15/04:30am 19.0 16.0 6.2 43 6.4 S 11 15 6 8 1006.7 1005.3 0.0
15/04:00am 19.0 16.8 9.2 53 5.2 SSW 11 13 6 7 1006.4 1005.0 0.0
15/03:30am 19.1 17.0 9.6 54 5.1 SSW 11 13 6 7 1006.3 1004.9 0.0
15/03:00am 19.5 17.8 10.0 54 5.1 SW 9 11 5 6 1006.3 1004.9 0.0
15/02:30am 20.1 18.7 9.7 51 5.6 SW 7 9 4 5 1006.2 1004.8 0.0
15/02:00am 20.4 18.6 9.3 49 6.0 SW 9 13 5 7 1006.1 1004.7 0.0
15/01:30am 21.0 18.9 9.6 48 6.2 SW 11 15 6 8 1006.0 1004.6 0.0
15/01:00am 21.7 19.0 7.5 40 7.4 SSW 11 13 6 7 1006.2 1004.8 0.0
15/12:30am 22.1 19.9 7.9 40 7.5 SSW 9 11 5 6 1006.3 1004.9 0.0
15/12:00am 22.3 19.5 8.4 41 7.4 SW 13 15 7 8 1006.6 1005.2 0.0
 
Date/Time
EST
Temp
°C
App
Temp
°C
Dew
Point
°C
Rel
Hum
%
Delta-T
°C
Wind Press
QNH
hPa
Press
MSL
hPa
Rain since
9am
mm
Dir  Spd
km/h
Gust
km/h
Spd
kts
Gust
kts
14/11:30pm 23.0 20.1 8.3 39 7.8 SW 13 17 7 9 1006.7 1005.3 0.0
14/11:00pm 23.6 20.4 6.8 34 8.8 SSW 13 15 7 8 1006.7 1005.3 0.0
14/10:30pm 24.3 20.9 6.1 31 9.4 SSW 13 15 7 8 1006.7 1005.3 0.0
14/10:00pm 24.5 21.2 6.3 31 9.5 SSW 13 13 7 7 1006.5 1005.1 0.0
14/09:30pm 25.3 22.3 6.0 29 10.0 SSW 11 15 6 8 1006.3 1004.9 0.0
14/09:00pm 25.8 22.8 5.9 28 10.4 SSW 11 13 6 7 1006.2 1004.8 0.0

Other Formats:

Comma delimited format used in spreadsheet applications
http://www.bom.gov.au/fwo/IDQ60801/IDQ60801.94346.axf

JavaScript Object Notation format (JSON) in row-major order
http://www.bom.gov.au/fwo/IDQ60801/IDQ60801.94346.json